Time;durP1;ratioP1;P1;durP2;ratioP2;P2;SDS_P1;SDS_P2;PMS_P1;PMS_P2;Temp;Humidity;BMP_temperature;BMP_pressure;BME280_temperature;BME280_humidity;BME280_pressure;Samples;Min_cycle;Max_cycle;Signal;HPM_P1;HPM_P2
2022/07/02 00:00:44;;;;;;;10.45;7.53;;;;;;;;;;5033226;28;20392;-56
2022/07/02 00:03:10;;;;;;;9.98;6.90;;;;;;;;;;5014728;28;20040;-58
2022/07/02 00:05:41;;;;;;;8.75;6.95;;;;;;;;;;5032085;28;20057;-59
2022/07/02 00:08:07;;;;;;;7.85;6.70;;;;;;;;;;5033980;28;20032;-59
2022/07/02 00:10:34;;;;;;;9.85;6.53;;;;;;;;;;5049490;28;20041;-58
2022/07/02 00:13:01;;;;;;;10.88;7.72;;;;;;;;;;5036202;28;20092;-58
2022/07/02 00:15:27;;;;;;;8.45;7.00;;;;;;;;;;5033404;28;20033;-58
2022/07/02 00:17:53;;;;;;;11.43;7.30;;;;;;;;;;5032318;28;20025;-58
2022/07/02 00:20:20;;;;;;;10.48;7.22;;;;;;;;;;5032220;28;20036;-57
2022/07/02 00:22:47;;;;;;;11.05;6.80;;;;;;;;;;5033151;28;20041;-58
2022/07/02 00:25:13;;;;;;;11.25;7.72;;;;;;;;;;5031466;28;20027;-57
2022/07/02 00:27:41;;;;;;;8.55;7.22;;;;;;;;;;5037398;28;20052;-58
2022/07/02 00:30:07;;;;;;;10.18;7.80;;;;;;;;;;5033381;28;20025;-57
2022/07/02 00:32:34;;;;;;;10.15;6.90;;;;;;;;;;5032698;28;20108;-58
2022/07/02 00:35:05;;;;;;;9.50;7.00;;;;;;;;;;5032745;28;20494;-58
2022/07/02 00:37:31;;;;;;;9.88;7.10;;;;;;;;;;5031067;28;20095;-57
2022/07/02 00:39:57;;;;;;;12.20;7.30;;;;;;;;;;5031625;28;20057;-58
2022/07/02 00:42:24;;;;;;;9.63;7.72;;;;;;;;;;5032549;28;20033;-57
2022/07/02 00:44:50;;;;;;;8.02;6.95;;;;;;;;;;5032310;28;20130;-57
2022/07/02 00:47:17;;;;;;;11.75;7.47;;;;;;;;;;5031548;28;20037;-57
2022/07/02 00:49:43;;;;;;;9.05;7.18;;;;;;;;;;5029343;28;20362;-58
2022/07/02 00:52:09;;;;;;;7.55;6.47;;;;;;;;;;5032637;28;20034;-58
2022/07/02 00:54:35;;;;;;;11.45;7.07;;;;;;;;;;5030906;28;20468;-58
2022/07/02 00:57:01;;;;;;;9.15;7.03;;;;;;;;;;5032153;28;20472;-58
2022/07/02 00:59:27;;;;;;;9.82;7.00;;;;;;;;;;5032466;28;20033;-58
2022/07/02 01:01:54;;;;;;;10.02;7.13;;;;;;;;;;5030973;28;20153;-56
2022/07/02 01:04:20;;;;;;;10.00;7.80;;;;;;;;;;5029529;28;20084;-55
2022/07/02 01:06:47;;;;;;;8.93;7.47;;;;;;;;;;5031460;28;20588;-56
2022/07/02 01:11:59;;;;;;;10.32;6.75;;;;;;;;;;5023388;28;20041;-56
2022/07/02 01:14:26;;;;;;;12.43;6.60;;;;;;;;;;5031080;28;20108;-57
2022/07/02 01:16:52;;;;;;;8.52;6.75;;;;;;;;;;5030816;28;20044;-56
2022/07/02 01:19:19;;;;;;;7.57;6.75;;;;;;;;;;5032078;28;20132;-56
2022/07/02 01:22:03;;;;;;;11.57;6.97;;;;;;;;;;5031459;28;20046;-56
2022/07/02 01:24:29;;;;;;;7.80;6.45;;;;;;;;;;5031481;28;20524;-55
2022/07/02 01:26:55;;;;;;;9.77;7.07;;;;;;;;;;5031693;28;20050;-55
2022/07/02 01:29:21;;;;;;;8.18;6.70;;;;;;;;;;5023717;28;20044;-56
2022/07/02 01:31:47;;;;;;;8.77;6.82;;;;;;;;;;5030543;28;20032;-54
2022/07/02 01:34:13;;;;;;;8.98;6.75;;;;;;;;;;5045059;28;20408;-56
2022/07/02 01:36:39;;;;;;;10.05;7.43;;;;;;;;;;5030414;28;20553;-56
2022/07/02 01:39:05;;;;;;;8.98;7.22;;;;;;;;;;5029646;28;20037;-56
2022/07/02 01:41:40;;;;;;;8.00;7.07;;;;;;;;;;5030807;28;20026;-54
2022/07/02 01:44:06;;;;;;;8.63;6.68;;;;;;;;;;5025278;28;20030;-56
2022/07/02 01:46:32;;;;;;;9.18;7.40;;;;;;;;;;5030828;28;20044;-56
2022/07/02 01:48:58;;;;;;;8.13;6.90;;;;;;;;;;5031393;28;20108;-56
2022/07/02 01:51:24;;;;;;;9.95;7.53;;;;;;;;;;5030641;28;20119;-56
2022/07/02 01:53:50;;;;;;;9.80;8.27;;;;;;;;;;5031544;28;20061;-55
2022/07/02 01:56:16;;;;;;;8.93;7.32;;;;;;;;;;5030094;28;20036;-56
2022/07/02 01:58:42;;;;;;;9.80;8.05;;;;;;;;;;5030027;28;20021;-57
2022/07/02 02:01:08;;;;;;;9.55;7.50;;;;;;;;;;5029783;28;20554;-54
2022/07/02 02:03:34;;;;;;;9.38;7.15;;;;;;;;;;5030028;28;20017;-54
2022/07/02 02:06:00;;;;;;;8.55;7.15;;;;;;;;;;5029736;28;20025;-56
2022/07/02 02:08:26;;;;;;;9.23;7.60;;;;;;;;;;5031339;28;20539;-56
2022/07/02 02:10:52;;;;;;;10.85;7.95;;;;;;;;;;5030543;28;20029;-56
2022/07/02 02:13:18;;;;;;;8.52;7.28;;;;;;;;;;5030572;28;20028;-56
2022/07/02 02:15:44;;;;;;;12.15;7.45;;;;;;;;;;5042072;28;20033;-55
2022/07/02 02:18:10;;;;;;;8.20;7.35;;;;;;;;;;5030730;28;20136;-55
2022/07/02 02:20:36;;;;;;;9.00;7.63;;;;;;;;;;5008648;28;20418;-55
2022/07/02 02:23:04;;;;;;;8.95;6.68;;;;;;;;;;5036819;28;20080;-56
2022/07/02 02:25:31;;;;;;;11.45;7.88;;;;;;;;;;5036233;28;20025;-56
2022/07/02 02:27:57;;;;;;;9.57;8.00;;;;;;;;;;5030629;28;20033;-55
2022/07/02 02:30:23;;;;;;;10.15;8.23;;;;;;;;;;5030233;28;20036;-55
2022/07/02 02:32:49;;;;;;;12.13;8.43;;;;;;;;;;5029782;28;20075;-56
2022/07/02 02:35:15;;;;;;;10.23;8.38;;;;;;;;;;5030661;28;20116;-56
2022/07/02 02:37:41;;;;;;;9.73;7.82;;;;;;;;;;5030709;28;20025;-54
2022/07/02 02:40:07;;;;;;;11.50;8.65;;;;;;;;;;5029612;28;20033;-54
2022/07/02 02:42:33;;;;;;;10.48;8.27;;;;;;;;;;5030286;28;20076;-56
2022/07/02 02:44:59;;;;;;;10.27;7.93;;;;;;;;;;5030166;28;20429;-53
2022/07/02 02:47:25;;;;;;;12.23;8.45;;;;;;;;;;5011906;28;20025;-56
2022/07/02 02:49:51;;;;;;;9.55;7.88;;;;;;;;;;5022354;28;20281;-56
2022/07/02 02:52:17;;;;;;;12.02;8.65;;;;;;;;;;5025592;28;20033;-56
2022/07/02 02:54:43;;;;;;;8.60;7.35;;;;;;;;;;5030400;28;20085;-56
2022/07/02 02:57:09;;;;;;;8.38;7.32;;;;;;;;;;5030399;28;20045;-55
2022/07/02 02:59:35;;;;;;;9.48;7.35;;;;;;;;;;5029950;28;20118;-56
2022/07/02 03:02:01;;;;;;;10.40;7.47;;;;;;;;;;5030052;28;20444;-55
2022/07/02 03:04:27;;;;;;;9.38;7.50;;;;;;;;;;5030695;28;20108;-55
2022/07/02 03:06:53;;;;;;;9.52;8.10;;;;;;;;;;5027050;28;20433;-55
2022/07/02 03:09:19;;;;;;;11.55;9.13;;;;;;;;;;5030586;28;20096;-56
2022/07/02 03:11:45;;;;;;;11.57;8.80;;;;;;;;;;5029027;28;20025;-56
2022/07/02 03:14:11;;;;;;;13.38;8.82;;;;;;;;;;5030521;28;20032;-56
2022/07/02 03:16:37;;;;;;;11.00;8.45;;;;;;;;;;5029374;28;20385;-57
2022/07/02 03:19:03;;;;;;;9.60;7.93;;;;;;;;;;5033907;28;20024;-56
2022/07/02 03:21:29;;;;;;;9.65;7.70;;;;;;;;;;5033245;28;20100;-56
2022/07/02 03:23:55;;;;;;;10.57;8.02;;;;;;;;;;5033430;28;20401;-55
2022/07/02 03:26:21;;;;;;;8.93;7.38;;;;;;;;;;5033061;28;20050;-56
2022/07/02 03:28:47;;;;;;;10.38;7.50;;;;;;;;;;5027652;28;20029;-54
2022/07/02 03:31:13;;;;;;;9.88;7.57;;;;;;;;;;5042173;28;20029;-56
2022/07/02 03:33:39;;;;;;;10.77;8.00;;;;;;;;;;5038557;28;20017;-56
2022/07/02 03:36:05;;;;;;;9.40;7.68;;;;;;;;;;5034183;28;20057;-55
2022/07/02 03:38:31;;;;;;;9.70;7.63;;;;;;;;;;5033241;28;20025;-56
2022/07/02 03:40:57;;;;;;;13.38;7.63;;;;;;;;;;5032211;28;20029;-56
2022/07/02 03:43:23;;;;;;;11.00;7.55;;;;;;;;;;5032806;28;20029;-54
2022/07/02 03:45:49;;;;;;;8.63;7.57;;;;;;;;;;5033981;28;20464;-55
2022/07/02 03:48:15;;;;;;;8.15;7.05;;;;;;;;;;5033262;28;20468;-56
2022/07/02 03:50:42;;;;;;;9.45;7.85;;;;;;;;;;5032748;28;20037;-55
2022/07/02 03:53:08;;;;;;;9.27;7.60;;;;;;;;;;5033856;28;20500;-56
2022/07/02 03:55:34;;;;;;;8.65;6.85;;;;;;;;;;5033475;28;20053;-55
2022/07/02 03:58:01;;;;;;;10.45;7.95;;;;;;;;;;5031824;28;20057;-55
2022/07/02 04:00:27;;;;;;;8.88;7.40;;;;;;;;;;5031821;28;20040;-56
2022/07/02 04:02:53;;;;;;;9.80;7.85;;;;;;;;;;5033516;28;20544;-56
2022/07/02 04:05:19;;;;;;;11.38;8.02;;;;;;;;;;5032667;28;20100;-55
2022/07/02 04:07:45;;;;;;;9.68;7.72;;;;;;;;;;5033254;28;20044;-56
2022/07/02 04:10:11;;;;;;;9.98;8.55;;;;;;;;;;5032298;28;20033;-56
2022/07/02 04:12:37;;;;;;;11.55;8.68;;;;;;;;;;5033353;28;20073;-54
2022/07/02 04:15:03;;;;;;;11.77;8.93;;;;;;;;;;5032328;28;20037;-55
2022/07/02 04:17:29;;;;;;;11.32;9.23;;;;;;;;;;5032709;28;20052;-56
2022/07/02 04:19:55;;;;;;;14.45;9.25;;;;;;;;;;5032701;28;20080;-55
2022/07/02 04:22:21;;;;;;;13.02;9.27;;;;;;;;;;5032358;28;20036;-56
2022/07/02 04:24:47;;;;;;;13.48;9.68;;;;;;;;;;5029026;28;20021;-56
2022/07/02 04:27:14;;;;;;;15.52;10.75;;;;;;;;;;5029319;28;20049;-56
2022/07/02 04:29:40;;;;;;;14.38;10.95;;;;;;;;;;5024732;28;20734;-56
2022/07/02 04:32:06;;;;;;;13.20;10.90;;;;;;;;;;5035887;28;20037;-56
2022/07/02 04:34:33;;;;;;;14.10;10.55;;;;;;;;;;5032408;28;20649;-55
2022/07/02 04:36:59;;;;;;;11.57;9.68;;;;;;;;;;5032831;28;20025;-56
2022/07/02 04:39:25;;;;;;;18.10;12.18;;;;;;;;;;5032586;28;20035;-56
2022/07/02 04:41:51;;;;;;;12.20;10.10;;;;;;;;;;5031171;28;20029;-56
2022/07/02 04:44:17;;;;;;;11.65;9.32;;;;;;;;;;5030421;28;20589;-55
2022/07/02 04:46:43;;;;;;;11.32;9.52;;;;;;;;;;5030004;28;20029;-56
2022/07/02 04:49:09;;;;;;;12.43;10.23;;;;;;;;;;5032194;28;20104;-55
2022/07/02 04:51:35;;;;;;;14.93;10.00;;;;;;;;;;5031580;28;20060;-56
2022/07/02 04:54:01;;;;;;;14.05;10.05;;;;;;;;;;5039766;28;20116;-55
2022/07/02 04:56:30;;;;;;;12.95;9.20;;;;;;;;;;5035693;28;20036;-56
2022/07/02 04:58:56;;;;;;;11.50;8.68;;;;;;;;;;5018743;28;20053;-56
2022/07/02 05:01:25;;;;;;;10.00;8.27;;;;;;;;;;5031487;28;20411;-55
2022/07/02 05:03:52;;;;;;;9.70;8.18;;;;;;;;;;5031054;28;20083;-56
2022/07/02 05:06:19;;;;;;;12.10;9.40;;;;;;;;;;5028483;28;20025;-52
2022/07/02 05:08:45;;;;;;;11.75;8.68;;;;;;;;;;5031136;28;20568;-54
2022/07/02 05:11:12;;;;;;;12.05;8.40;;;;;;;;;;5027856;28;20052;-56
2022/07/02 05:13:38;;;;;;;10.73;8.65;;;;;;;;;;5027032;28;20026;-56
2022/07/02 05:16:04;;;;;;;12.25;8.73;;;;;;;;;;5025450;28;20378;-55
2022/07/02 05:18:30;;;;;;;12.13;7.40;;;;;;;;;;5030297;28;20412;-56
2022/07/02 05:20:56;;;;;;;14.38;9.35;;;;;;;;;;5030321;28;20033;-55
2022/07/02 05:23:21;;;;;;;9.20;7.88;;;;;;;;;;5030815;28;20022;-56
2022/07/02 05:25:47;;;;;;;8.98;6.85;;;;;;;;;;5031072;28;20033;-57
2022/07/02 05:28:13;;;;;;;9.40;7.55;;;;;;;;;;5026833;28;20025;-54
2022/07/02 05:30:39;;;;;;;8.68;7.18;;;;;;;;;;5026474;28;20104;-56
2022/07/02 05:33:05;;;;;;;8.93;7.15;;;;;;;;;;5031037;28;20030;-56
2022/07/02 05:35:31;;;;;;;11.05;7.38;;;;;;;;;;5030464;28;20163;-56
2022/07/02 05:37:57;;;;;;;10.27;6.88;;;;;;;;;;5031042;28;20476;-56
2022/07/02 05:40:23;;;;;;;10.30;6.75;;;;;;;;;;5028865;28;20021;-55
2022/07/02 05:42:49;;;;;;;8.15;6.93;;;;;;;;;;5025231;28;20080;-54
2022/07/02 05:45:15;;;;;;;9.57;6.75;;;;;;;;;;5026144;28;20025;-56
2022/07/02 05:47:42;;;;;;;7.60;6.13;;;;;;;;;;5031154;28;20108;-56
2022/07/02 05:50:08;;;;;;;11.48;6.47;;;;;;;;;;5027976;28;20156;-56
2022/07/02 05:52:34;;;;;;;9.50;5.78;;;;;;;;;;5030234;28;20064;-54
2022/07/02 05:55:00;;;;;;;7.82;6.03;;;;;;;;;;5029844;28;20037;-56
2022/07/02 05:57:26;;;;;;;6.75;5.63;;;;;;;;;;5030972;28;20433;-56
2022/07/02 05:59:52;;;;;;;8.35;6.85;;;;;;;;;;5028471;28;20118;-55
2022/07/02 06:02:18;;;;;;;11.70;5.82;;;;;;;;;;5024711;28;20366;-56
2022/07/02 06:04:44;;;;;;;8.13;5.47;;;;;;;;;;5027580;28;20029;-58
2022/07/02 06:09:55;;;;;;;7.00;5.38;;;;;;;;;;5029721;28;20105;-59
2022/07/02 06:12:22;;;;;;;10.43;5.57;;;;;;;;;;5026926;28;20021;-59
2022/07/02 06:14:48;;;;;;;10.00;5.38;;;;;;;;;;5028905;28;20495;-61
2022/07/02 06:17:14;;;;;;;6.32;4.80;;;;;;;;;;5032477;28;20115;-59
2022/07/02 06:19:40;;;;;;;8.55;5.65;;;;;;;;;;5027287;28;20024;-58
2022/07/02 06:22:06;;;;;;;8.27;5.30;;;;;;;;;;5020610;28;20124;-59
2022/07/02 06:24:32;;;;;;;9.23;5.15;;;;;;;;;;5017228;28;20498;-60
2022/07/02 06:26:58;;;;;;;9.15;4.93;;;;;;;;;;5028781;28;20049;-58
2022/07/02 06:29:24;;;;;;;8.98;5.13;;;;;;;;;;5030334;28;20109;-58
2022/07/02 06:31:53;;;;;;;6.78;4.53;;;;;;;;;;5030485;28;20033;-59
2022/07/02 06:34:22;;;;;;;15.40;4.43;;;;;;;;;;5030049;28;20109;-58
2022/07/02 06:36:48;;;;;;;6.05;4.53;;;;;;;;;;5030311;28;20044;-59
2022/07/02 06:39:15;;;;;;;8.20;4.38;;;;;;;;;;5019293;28;20034;-59
2022/07/02 06:44:26;;;;;;;6.40;4.93;;;;;;;;;;5016477;28;20444;-58
2022/07/02 06:46:52;;;;;;;7.63;4.63;;;;;;;;;;5023602;28;20037;-59
2022/07/02 06:49:18;;;;;;;6.70;4.15;;;;;;;;;;5028068;28;20094;-59
2022/07/02 06:51:44;;;;;;;7.25;4.00;;;;;;;;;;5028802;28;20885;-59
2022/07/02 06:54:11;;;;;;;5.75;4.00;;;;;;;;;;5033570;28;20061;-59
2022/07/02 06:56:37;;;;;;;6.28;3.72;;;;;;;;;;5033730;28;20017;-59
2022/07/02 06:59:04;;;;;;;4.25;3.72;;;;;;;;;;5032664;28;20029;-59
2022/07/02 07:01:30;;;;;;;6.60;4.20;;;;;;;;;;5045739;28;20539;-58
2022/07/02 07:03:56;;;;;;;11.30;4.50;;;;;;;;;;5034350;28;20100;-59
2022/07/02 07:06:26;;;;;;;5.68;3.75;;;;;;;;;;5034529;28;20049;-59
2022/07/02 07:08:55;;;;;;;4.82;3.10;;;;;;;;;;5032834;28;20473;-59
2022/07/02 07:11:21;;;;;;;5.30;3.22;;;;;;;;;;5033492;28;20026;-58
2022/07/02 07:13:47;;;;;;;8.18;3.08;;;;;;;;;;5020431;28;20033;-59
2022/07/02 07:16:13;;;;;;;9.93;3.60;;;;;;;;;;5033168;28;20160;-59
2022/07/02 07:18:39;;;;;;;4.95;2.97;;;;;;;;;;5032263;28;20116;-59
2022/07/02 07:21:05;;;;;;;4.95;2.80;;;;;;;;;;5032557;28;20022;-59
2022/07/02 07:23:32;;;;;;;5.57;2.53;;;;;;;;;;5033234;28;20036;-58
2022/07/02 07:25:58;;;;;;;4.80;3.15;;;;;;;;;;5027588;28;20222;-59
2022/07/02 07:28:27;;;;;;;4.05;2.45;;;;;;;;;;5029392;28;20085;-59
2022/07/02 07:30:53;;;;;;;3.58;2.20;;;;;;;;;;5029151;28;20045;-59
2022/07/02 07:33:19;;;;;;;3.47;1.95;;;;;;;;;;5032501;28;20087;-59
2022/07/02 07:35:45;;;;;;;4.93;1.60;;;;;;;;;;5032202;28;20123;-59
2022/07/02 07:38:11;;;;;;;4.30;2.03;;;;;;;;;;5015671;28;20094;-59
2022/07/02 07:40:37;;;;;;;2.90;1.73;;;;;;;;;;5032550;28;20032;-59
2022/07/02 07:43:03;;;;;;;5.80;2.33;;;;;;;;;;5033341;28;20036;-59
2022/07/02 07:45:30;;;;;;;2.95;1.75;;;;;;;;;;5033454;28;20025;-59
2022/07/02 07:47:56;;;;;;;3.22;1.98;;;;;;;;;;5030045;28;20534;-59
2022/07/02 07:50:22;;;;;;;4.93;1.77;;;;;;;;;;5030225;28;20171;-58
2022/07/02 07:52:48;;;;;;;4.80;1.98;;;;;;;;;;5030464;28;20117;-58
2022/07/02 07:55:14;;;;;;;4.35;2.08;;;;;;;;;;5028110;28;20047;-57
2022/07/02 07:57:40;;;;;;;5.15;1.67;;;;;;;;;;5031299;28;20052;-58
2022/07/02 08:00:07;;;;;;;4.32;1.67;;;;;;;;;;5026313;28;20083;-59
2022/07/02 08:02:33;;;;;;;5.63;1.60;;;;;;;;;;5031726;28;20813;-59
2022/07/02 08:04:58;;;;;;;2.17;1.52;;;;;;;;;;5029238;28;20109;-58
2022/07/02 08:07:24;;;;;;;5.53;1.55;;;;;;;;;;5031378;28;20084;-59
2022/07/02 08:09:54;;;;;;;2.08;1.30;;;;;;;;;;5023836;28;20153;-58
2022/07/02 08:12:22;;;;;;;4.07;1.52;;;;;;;;;;5026138;28;20433;-59
2022/07/02 08:14:49;;;;;;;2.85;1.27;;;;;;;;;;5026345;28;20471;-59
2022/07/02 08:17:15;;;;;;;5.53;1.33;;;;;;;;;;5023359;28;20689;-58
2022/07/02 08:19:41;;;;;;;2.78;1.23;;;;;;;;;;5024122;28;20021;-59
2022/07/02 08:22:08;;;;;;;4.20;1.13;;;;;;;;;;5027917;28;20056;-59
2022/07/02 08:24:34;;;;;;;1.60;1.00;;;;;;;;;;5030652;28;20438;-59
2022/07/02 08:27:00;;;;;;;5.20;1.85;;;;;;;;;;5031863;28;20061;-59
2022/07/02 08:29:26;;;;;;;7.25;1.77;;;;;;;;;;5029557;28;20507;-58
2022/07/02 08:31:52;;;;;;;3.53;1.30;;;;;;;;;;5027672;28;20044;-58
2022/07/02 08:34:18;;;;;;;5.45;1.40;;;;;;;;;;5026090;28;20037;-59
2022/07/02 08:36:44;;;;;;;3.90;1.08;;;;;;;;;;5032712;28;20411;-59
2022/07/02 08:39:10;;;;;;;6.15;0.98;;;;;;;;;;5032573;28;20021;-58
2022/07/02 08:41:36;;;;;;;6.43;0.90;;;;;;;;;;5032288;28;20049;-59
2022/07/02 08:44:04;;;;;;;1.48;0.98;;;;;;;;;;5032833;28;20429;-58
2022/07/02 08:46:31;;;;;;;3.33;1.25;;;;;;;;;;5032449;28;20163;-58
2022/07/02 08:48:58;;;;;;;2.38;1.17;;;;;;;;;;5032332;28;20079;-59
2022/07/02 08:51:24;;;;;;;7.93;1.35;;;;;;;;;;5032083;28;20022;-58
2022/07/02 08:53:50;;;;;;;6.07;1.50;;;;;;;;;;5013658;28;20026;-58
2022/07/02 08:56:17;;;;;;;2.17;1.35;;;;;;;;;;5032431;28;20080;-59
2022/07/02 08:58:44;;;;;;;2.47;0.95;;;;;;;;;;5032325;28;20551;-58
2022/07/02 09:01:12;;;;;;;3.83;1.05;;;;;;;;;;5032170;28;20064;-59
2022/07/02 09:03:39;;;;;;;2.53;1.23;;;;;;;;;;5032340;28;20472;-59
2022/07/02 09:06:08;;;;;;;3.42;1.00;;;;;;;;;;5032605;28;20035;-59
2022/07/02 09:08:34;;;;;;;2.92;1.00;;;;;;;;;;5038622;28;20027;-59
2022/07/02 09:11:01;;;;;;;2.88;1.20;;;;;;;;;;5038422;28;20056;-58
2022/07/02 09:13:27;;;;;;;2.00;1.10;;;;;;;;;;5014301;28;20108;-59
2022/07/02 09:15:53;;;;;;;2.60;1.00;;;;;;;;;;5031638;28;20033;-58
2022/07/02 09:18:19;;;;;;;3.38;0.75;;;;;;;;;;5032090;28;20036;-58
2022/07/02 09:20:45;;;;;;;3.15;0.80;;;;;;;;;;5039277;28;20096;-60
2022/07/02 09:23:20;;;;;;;1.20;0.50;;;;;;;;;;5031890;28;20026;-58
2022/07/02 09:25:47;;;;;;;1.38;0.60;;;;;;;;;;5031548;28;20045;-58
2022/07/02 09:28:14;;;;;;;1.48;0.50;;;;;;;;;;5028059;28;20092;-58
2022/07/02 09:30:40;;;;;;;1.08;0.52;;;;;;;;;;5027889;28;20035;-59
2022/07/02 09:33:35;;;;;;;2.90;0.63;;;;;;;;;;5031786;28;20144;-59
2022/07/02 09:36:08;;;;;;;3.00;0.93;;;;;;;;;;5011240;28;20488;-59
2022/07/02 09:38:40;;;;;;;2.90;0.77;;;;;;;;;;5031428;28;20025;-58
2022/07/02 09:41:10;;;;;;;2.22;0.82;;;;;;;;;;5031250;28;20068;-58
2022/07/02 09:43:38;;;;;;;1.75;0.60;;;;;;;;;;5035600;28;20162;-59
2022/07/02 09:46:13;;;;;;;2.17;0.73;;;;;;;;;;5031835;28;20032;-58
2022/07/02 09:48:39;;;;;;;2.17;0.90;;;;;;;;;;5031480;28;20021;-58
2022/07/02 09:51:05;;;;;;;5.18;1.33;;;;;;;;;;5031182;28;20030;-57
2022/07/02 09:53:32;;;;;;;4.43;1.08;;;;;;;;;;5031018;28;20493;-58
2022/07/02 09:55:58;;;;;;;3.08;1.02;;;;;;;;;;5031638;28;20033;-59
2022/07/02 09:58:25;;;;;;;1.77;0.70;;;;;;;;;;5030909;28;20033;-59
2022/07/02 10:00:51;;;;;;;2.60;1.10;;;;;;;;;;5030008;28;20033;-59
2022/07/02 10:03:17;;;;;;;2.92;0.90;;;;;;;;;;5030534;28;20100;-59
2022/07/02 10:05:45;;;;;;;3.97;0.80;;;;;;;;;;5031170;28;20059;-58
2022/07/02 10:08:12;;;;;;;3.15;0.75;;;;;;;;;;5030992;28;20032;-58
2022/07/02 10:10:38;;;;;;;3.10;0.90;;;;;;;;;;5030642;28;20493;-58
2022/07/02 10:13:05;;;;;;;2.65;1.33;;;;;;;;;;5031099;28;20029;-59
2022/07/02 10:15:32;;;;;;;2.40;0.95;;;;;;;;;;5030616;28;20065;-58
2022/07/02 10:18:00;;;;;;;3.38;0.80;;;;;;;;;;5022471;28;20025;-58
2022/07/02 10:20:26;;;;;;;2.42;1.20;;;;;;;;;;5037761;28;20048;-59
2022/07/02 10:22:52;;;;;;;2.33;0.60;;;;;;;;;;5041377;28;20064;-59
2022/07/02 10:25:19;;;;;;;1.73;0.90;;;;;;;;;;5030750;28;20065;-58
2022/07/02 10:27:51;;;;;;;2.90;0.75;;;;;;;;;;5030064;28;20128;-58
2022/07/02 10:30:20;;;;;;;3.70;0.82;;;;;;;;;;5028357;28;20153;-59
2022/07/02 10:32:53;;;;;;;4.30;0.70;;;;;;;;;;5029977;28;20033;-58
2022/07/02 10:35:22;;;;;;;2.90;0.80;;;;;;;;;;5030853;28;20045;-57
2022/07/02 10:37:48;;;;;;;1.77;0.70;;;;;;;;;;5012726;28;20044;-58
2022/07/02 10:40:18;;;;;;;2.38;0.60;;;;;;;;;;5029662;28;20033;-58
2022/07/02 10:42:49;;;;;;;2.42;1.10;;;;;;;;;;5030846;28;20026;-58
2022/07/02 10:45:16;;;;;;;2.25;1.23;;;;;;;;;;5018192;28;20038;-59
2022/07/02 10:48:01;;;;;;;8.15;0.65;;;;;;;;;;5030720;28;20041;-57
2022/07/02 10:50:38;;;;;;;4.32;1.20;;;;;;;;;;5030479;28;20547;-58
2022/07/02 10:53:18;;;;;;;2.55;0.82;;;;;;;;;;5030330;28;20041;-58
2022/07/02 10:55:45;;;;;;;8.10;1.00;;;;;;;;;;5030739;28;20091;-58
2022/07/02 10:58:28;;;;;;;0.90;0.50;;;;;;;;;;5030653;28;20033;-58
2022/07/02 11:00:54;;;;;;;2.38;0.77;;;;;;;;;;5030127;28;20061;-57
2022/07/02 11:03:27;;;;;;;2.35;0.30;;;;;;;;;;5030336;28;20108;-58
2022/07/02 11:06:00;;;;;;;4.38;0.95;;;;;;;;;;5030899;28;20047;-58
2022/07/02 11:08:26;;;;;;;;;;;;;;;;;;5031155;28;20068;-58
2022/07/02 11:10:52;;;;;;;4.82;0.70;;;;;;;;;;5030137;28;19953;-59
2022/07/02 11:13:18;;;;;;;0.93;0.60;;;;;;;;;;5030568;28;20026;-58
2022/07/02 11:15:44;;;;;;;2.45;0.57;;;;;;;;;;5030054;28;20099;-58
2022/07/02 11:18:11;;;;;;;2.20;0.82;;;;;;;;;;5029487;28;20476;-59
2022/07/02 11:20:37;;;;;;;3.40;1.05;;;;;;;;;;5034547;28;20100;-59
2022/07/02 11:23:04;;;;;;;4.32;1.25;;;;;;;;;;5019975;28;20543;-58
2022/07/02 11:25:31;;;;;;;1.27;0.50;;;;;;;;;;5027449;28;20013;-58
2022/07/02 11:28:01;;;;;;;2.00;0.60;;;;;;;;;;5030748;28;20758;-58
2022/07/02 11:30:31;;;;;;;3.38;0.55;;;;;;;;;;5029494;28;20033;-59
2022/07/02 11:32:58;;;;;;;1.30;0.50;;;;;;;;;;5025715;28;20033;-58
2022/07/02 11:35:24;;;;;;;2.65;0.63;;;;;;;;;;5028040;28;20112;-58
2022/07/02 11:37:55;;;;;;;1.58;0.40;;;;;;;;;;5025762;28;20156;-58
2022/07/02 11:40:21;;;;;;;1.80;0.63;;;;;;;;;;5031929;28;20026;-58
2022/07/02 11:42:48;;;;;;;3.58;0.68;;;;;;;;;;5032672;28;20041;-57
2022/07/02 11:45:14;;;;;;;1.45;0.43;;;;;;;;;;5030167;28;20092;-58
2022/07/02 11:47:58;;;;;;;2.15;0.70;;;;;;;;;;5030627;28;20123;-58
2022/07/02 11:50:28;;;;;;;1.42;0.50;;;;;;;;;;5031379;28;20033;-58
2022/07/02 11:52:54;;;;;;;1.50;0.70;;;;;;;;;;5032673;28;20029;-58
2022/07/02 11:55:20;;;;;;;2.67;0.50;;;;;;;;;;5032071;28;20084;-58
2022/07/02 11:57:46;;;;;;;1.75;0.63;;;;;;;;;;5032658;28;20036;-58
2022/07/02 12:00:12;;;;;;;0.80;0.50;;;;;;;;;;5030123;28;21246;-58
2022/07/02 12:02:39;;;;;;;1.38;0.57;;;;;;;;;;5029641;28;20053;-58
2022/07/02 12:05:16;;;;;;;1.60;0.70;;;;;;;;;;5032880;28;20028;-59
2022/07/02 12:07:42;;;;;;;0.75;0.40;;;;;;;;;;5033001;28;20411;-58
2022/07/02 12:10:08;;;;;;;1.23;0.50;;;;;;;;;;5031381;28;20045;-58
2022/07/02 12:12:35;;;;;;;2.63;0.65;;;;;;;;;;5028552;28;20055;-58
2022/07/02 12:15:03;;;;;;;1.15;0.60;;;;;;;;;;5029944;28;20485;-58
2022/07/02 12:17:30;;;;;;;1.60;0.60;;;;;;;;;;5029735;28;20037;-57
2022/07/02 12:19:56;;;;;;;1.33;0.50;;;;;;;;;;5029383;28;20033;-58
2022/07/02 12:22:25;;;;;;;1.08;0.50;;;;;;;;;;5032491;28;20041;-56
2022/07/02 12:24:51;;;;;;;4.95;0.65;;;;;;;;;;5031933;28;20129;-59
2022/07/02 12:27:17;;;;;;;1.48;0.60;;;;;;;;;;5032076;28;20413;-58
2022/07/02 12:30:04;;;;;;;5.05;0.45;;;;;;;;;;5029444;28;20032;-57
2022/07/02 12:32:38;;;;;;;1.65;0.63;;;;;;;;;;5006964;28;20121;-58
2022/07/02 12:35:06;;;;;;;1.92;0.73;;;;;;;;;;5014230;28;20404;-58
2022/07/02 12:37:34;;;;;;;1.33;0.50;;;;;;;;;;5031977;28;20469;-58
2022/07/02 12:40:01;;;;;;;2.55;0.70;;;;;;;;;;5032673;28;20029;-59
2022/07/02 12:42:28;;;;;;;2.90;0.60;;;;;;;;;;5031732;28;20017;-57
2022/07/02 12:44:54;;;;;;;2.92;0.88;;;;;;;;;;5031206;28;20052;-59
2022/07/02 12:47:27;;;;;;;1.45;0.70;;;;;;;;;;5032647;28;20489;-57
2022/07/02 12:49:53;;;;;;;;;;;;;;;;;;5030641;28;20033;-56
2022/07/02 12:52:19;;;;;;;3.95;0.95;;;;;;;;;;5030541;28;19916;-58
2022/07/02 12:54:45;;;;;;;1.55;0.60;;;;;;;;;;5025331;28;20034;-58
2022/07/02 12:57:14;;;;;;;3.53;0.80;;;;;;;;;;5025220;28;20044;-58
2022/07/02 12:59:40;;;;;;;2.63;0.63;;;;;;;;;;5031989;28;20018;-58
2022/07/02 13:02:06;;;;;;;0.93;0.40;;;;;;;;;;5024058;28;20022;-59
2022/07/02 13:04:32;;;;;;;1.75;0.60;;;;;;;;;;5032706;28;20026;-58
2022/07/02 13:06:58;;;;;;;2.97;0.63;;;;;;;;;;5031920;28;20036;-58
2022/07/02 13:09:24;;;;;;;2.10;0.50;;;;;;;;;;5014330;28;20603;-59
2022/07/02 13:11:50;;;;;;;1.15;0.55;;;;;;;;;;5031893;28;20041;-59
2022/07/02 13:14:16;;;;;;;1.05;0.47;;;;;;;;;;5030434;28;20472;-56
2022/07/02 13:16:42;;;;;;;2.03;0.60;;;;;;;;;;5025291;28;20024;-56
2022/07/02 13:19:08;;;;;;;1.48;0.35;;;;;;;;;;5026877;28;20079;-56
2022/07/02 13:21:34;;;;;;;1.27;0.52;;;;;;;;;;5031434;28;20025;-56
2022/07/02 13:24:00;;;;;;;1.13;0.50;;;;;;;;;;5020615;28;20033;-56
2022/07/02 13:26:26;;;;;;;2.08;0.50;;;;;;;;;;5023287;28;20060;-57
2022/07/02 13:28:52;;;;;;;0.93;0.50;;;;;;;;;;5023304;28;20068;-57
2022/07/02 13:31:18;;;;;;;1.05;0.68;;;;;;;;;;5017925;28;20021;-57
2022/07/02 13:33:44;;;;;;;1.27;0.32;;;;;;;;;;5021185;28;20029;-57
2022/07/02 13:36:11;;;;;;;1.20;0.47;;;;;;;;;;5008164;28;20050;-58
2022/07/02 13:38:37;;;;;;;0.60;0.20;;;;;;;;;;5027454;28;20025;-58
2022/07/02 13:41:03;;;;;;;0.60;0.30;;;;;;;;;;5030866;28;20559;-58
2022/07/02 13:43:29;;;;;;;1.55;0.40;;;;;;;;;;5027902;28;20104;-58
2022/07/02 13:45:55;;;;;;;1.15;0.30;;;;;;;;;;5030927;28;20467;-58
2022/07/02 13:48:21;;;;;;;2.42;0.77;;;;;;;;;;5029758;28;20033;-57
2022/07/02 13:50:47;;;;;;;1.45;0.35;;;;;;;;;;5028714;28;20025;-57
2022/07/02 13:53:13;;;;;;;2.60;0.35;;;;;;;;;;5027153;28;20065;-58
2022/07/02 13:55:39;;;;;;;2.15;0.88;;;;;;;;;;5029105;28;20481;-57
2022/07/02 13:58:05;;;;;;;2.05;0.50;;;;;;;;;;5009796;28;20040;-57
2022/07/02 14:00:31;;;;;;;2.63;0.55;;;;;;;;;;5029837;28;20021;-57
2022/07/02 14:02:57;;;;;;;1.73;0.50;;;;;;;;;;5027423;28;20113;-58
2022/07/02 14:05:23;;;;;;;0.68;0.30;;;;;;;;;;5030793;28;20408;-56
2022/07/02 14:07:49;;;;;;;1.75;0.35;;;;;;;;;;5025980;28;20524;-57
2022/07/02 14:10:15;;;;;;;2.55;0.47;;;;;;;;;;5043656;28;20076;-57
2022/07/02 14:12:41;;;;;;;0.40;0.30;;;;;;;;;;5029227;28;20052;-57
2022/07/02 14:15:08;;;;;;;0.30;0.20;;;;;;;;;;5030315;28;20412;-57
2022/07/02 14:17:33;;;;;;;1.13;0.30;;;;;;;;;;5029194;28;20037;-58
2022/07/02 14:20:00;;;;;;;1.48;0.55;;;;;;;;;;5029224;28;20080;-57
2022/07/02 14:22:29;;;;;;;1.58;0.40;;;;;;;;;;5029411;28;20022;-59
2022/07/02 14:24:55;;;;;;;0.90;0.40;;;;;;;;;;5030975;28;20586;-59
2022/07/02 14:27:22;;;;;;;1.05;0.57;;;;;;;;;;5030236;28;20049;-57
2022/07/02 14:29:48;;;;;;;1.15;0.43;;;;;;;;;;5029591;28;20083;-57
2022/07/02 14:32:14;;;;;;;0.28;0.20;;;;;;;;;;5029877;28;20091;-58
2022/07/02 14:34:40;;;;;;;4.78;0.57;;;;;;;;;;5029289;28;20034;-58
2022/07/02 14:37:06;;;;;;;3.13;0.52;;;;;;;;;;5027213;28;20112;-58
2022/07/02 14:39:33;;;;;;;3.40;0.40;;;;;;;;;;5027037;28;20036;-57
2022/07/02 14:42:00;;;;;;;5.95;1.13;;;;;;;;;;5028268;28;20032;-57
2022/07/02 14:44:26;;;;;;;1.65;0.40;;;;;;;;;;5030657;28;20123;-57
2022/07/02 14:46:51;;;;;;;1.20;0.32;;;;;;;;;;5019953;28;20077;-58